sensor_id;sensor_type;location;lat;lon;timestamp;P1;durP1;ratioP1;P2;durP2;ratioP2
11228;SDS011;5671;47.936;8.716;2023-05-10T00:01:26;0.40;;;0.10;;
11228;SDS011;5671;47.936;8.716;2023-05-10T00:03:54;0.20;;;0.10;;
11228;SDS011;5671;47.936;8.716;2023-05-10T00:06:21;3.63;;;0.10;;
11228;SDS011;5671;47.936;8.716;2023-05-10T00:08:48;0.20;;;0.00;;
11228;SDS011;5671;47.936;8.716;2023-05-10T00:11:15;5.77;;;0.20;;
11228;SDS011;5671;47.936;8.716;2023-05-10T00:13:42;1.07;;;0.10;;
11228;SDS011;5671;47.936;8.716;2023-05-10T00:16:09;0.10;;;0.10;;
11228;SDS011;5671;47.936;8.716;2023-05-10T00:18:37;0.50;;;0.10;;
11228;SDS011;5671;47.936;8.716;2023-05-10T00:21:05;0.10;;;0.00;;
11228;SDS011;5671;47.936;8.716;2023-05-10T00:23:32;0.00;;;0.00;;
11228;SDS011;5671;47.936;8.716;2023-05-10T00:25:59;0.17;;;0.10;;
11228;SDS011;5671;47.936;8.716;2023-05-10T00:28:27;2.90;;;0.20;;
11228;SDS011;5671;47.936;8.716;2023-05-10T00:30:54;0.60;;;0.10;;
11228;SDS011;5671;47.936;8.716;2023-05-10T00:33:21;0.00;;;0.00;;
11228;SDS011;5671;47.936;8.716;2023-05-10T00:35:48;0.90;;;0.23;;
11228;SDS011;5671;47.936;8.716;2023-05-10T00:38:16;0.20;;;0.20;;
11228;SDS011;5671;47.936;8.716;2023-05-10T00:40:43;0.67;;;0.07;;
11228;SDS011;5671;47.936;8.716;2023-05-10T00:43:10;2.83;;;0.30;;
11228;SDS011;5671;47.936;8.716;2023-05-10T00:45:37;0.37;;;0.20;;
11228;SDS011;5671;47.936;8.716;2023-05-10T00:48:06;2.00;;;0.30;;
11228;SDS011;5671;47.936;8.716;2023-05-10T00:50:33;2.13;;;0.17;;
11228;SDS011;5671;47.936;8.716;2023-05-10T00:53:00;0.87;;;0.13;;
11228;SDS011;5671;47.936;8.716;2023-05-10T00:55:29;2.30;;;0.10;;
11228;SDS011;5671;47.936;8.716;2023-05-10T00:57:57;0.40;;;0.13;;
11228;SDS011;5671;47.936;8.716;2023-05-10T01:00:24;2.00;;;0.10;;
11228;SDS011;5671;47.936;8.716;2023-05-10T01:02:51;0.43;;;0.20;;
11228;SDS011;5671;47.936;8.716;2023-05-10T01:05:19;0.30;;;0.30;;
11228;SDS011;5671;47.936;8.716;2023-05-10T01:07:46;0.10;;;0.10;;
11228;SDS011;5671;47.936;8.716;2023-05-10T01:10:13;1.00;;;0.10;;
11228;SDS011;5671;47.936;8.716;2023-05-10T01:12:42;4.03;;;0.10;;
11228;SDS011;5671;47.936;8.716;2023-05-10T01:15:12;1.50;;;0.20;;
11228;SDS011;5671;47.936;8.716;2023-05-10T01:17:40;0.50;;;0.20;;
11228;SDS011;5671;47.936;8.716;2023-05-10T01:20:09;0.10;;;0.00;;
11228;SDS011;5671;47.936;8.716;2023-05-10T01:22:47;0.23;;;0.23;;
11228;SDS011;5671;47.936;8.716;2023-05-10T01:25:32;0.77;;;0.20;;
11228;SDS011;5671;47.936;8.716;2023-05-10T01:28:23;2.13;;;0.70;;
11228;SDS011;5671;47.936;8.716;2023-05-10T01:31:18;1.90;;;0.20;;
11228;SDS011;5671;47.936;8.716;2023-05-10T01:33:57;0.07;;;0.00;;
11228;SDS011;5671;47.936;8.716;2023-05-10T01:36:30;0.93;;;0.20;;
11228;SDS011;5671;47.936;8.716;2023-05-10T01:39:00;0.30;;;0.10;;
11228;SDS011;5671;47.936;8.716;2023-05-10T01:41:36;0.90;;;0.13;;
11228;SDS011;5671;47.936;8.716;2023-05-10T01:44:10;2.33;;;0.00;;
11228;SDS011;5671;47.936;8.716;2023-05-10T01:46:42;1.40;;;0.17;;
11228;SDS011;5671;47.936;8.716;2023-05-10T01:49:19;0.10;;;0.10;;
11228;SDS011;5671;47.936;8.716;2023-05-10T01:51:51;0.30;;;0.10;;
11228;SDS011;5671;47.936;8.716;2023-05-10T01:54:21;0.33;;;0.13;;
11228;SDS011;5671;47.936;8.716;2023-05-10T01:56:52;2.93;;;0.10;;
11228;SDS011;5671;47.936;8.716;2023-05-10T01:59:25;0.73;;;0.17;;
11228;SDS011;5671;47.936;8.716;2023-05-10T02:01:56;0.00;;;0.00;;
11228;SDS011;5671;47.936;8.716;2023-05-10T02:04:26;1.03;;;0.10;;
11228;SDS011;5671;47.936;8.716;2023-05-10T02:06:54;2.00;;;0.33;;
11228;SDS011;5671;47.936;8.716;2023-05-10T02:09:22;0.07;;;0.07;;
11228;SDS011;5671;47.936;8.716;2023-05-10T02:11:51;0.57;;;0.13;;
11228;SDS011;5671;47.936;8.716;2023-05-10T02:14:20;0.10;;;0.10;;
11228;SDS011;5671;47.936;8.716;2023-05-10T02:16:49;7.23;;;0.27;;
11228;SDS011;5671;47.936;8.716;2023-05-10T02:19:18;0.47;;;0.10;;
11228;SDS011;5671;47.936;8.716;2023-05-10T02:21:49;2.73;;;0.43;;
11228;SDS011;5671;47.936;8.716;2023-05-10T02:24:17;1.80;;;0.20;;
11228;SDS011;5671;47.936;8.716;2023-05-10T02:26:45;0.50;;;0.50;;
11228;SDS011;5671;47.936;8.716;2023-05-10T02:29:15;0.50;;;0.20;;
11228;SDS011;5671;47.936;8.716;2023-05-10T02:31:43;0.50;;;0.10;;
11228;SDS011;5671;47.936;8.716;2023-05-10T02:34:11;0.40;;;0.30;;
11228;SDS011;5671;47.936;8.716;2023-05-10T02:36:39;4.00;;;0.23;;
11228;SDS011;5671;47.936;8.716;2023-05-10T02:39:08;1.30;;;0.40;;
11228;SDS011;5671;47.936;8.716;2023-05-10T02:41:37;3.40;;;0.40;;
11228;SDS011;5671;47.936;8.716;2023-05-10T02:44:06;0.37;;;0.37;;
11228;SDS011;5671;47.936;8.716;2023-05-10T02:46:34;1.00;;;0.30;;
11228;SDS011;5671;47.936;8.716;2023-05-10T02:49:02;2.77;;;0.30;;
11228;SDS011;5671;47.936;8.716;2023-05-10T02:51:30;0.20;;;0.20;;
11228;SDS011;5671;47.936;8.716;2023-05-10T02:54:01;0.40;;;0.17;;
11228;SDS011;5671;47.936;8.716;2023-05-10T02:56:40;2.33;;;0.30;;
11228;SDS011;5671;47.936;8.716;2023-05-10T02:59:13;0.40;;;0.27;;
11228;SDS011;5671;47.936;8.716;2023-05-10T03:01:40;1.20;;;0.63;;
11228;SDS011;5671;47.936;8.716;2023-05-10T03:04:07;0.40;;;0.20;;
11228;SDS011;5671;47.936;8.716;2023-05-10T03:06:34;0.20;;;0.20;;
11228;SDS011;5671;47.936;8.716;2023-05-10T03:09:01;0.97;;;0.20;;
11228;SDS011;5671;47.936;8.716;2023-05-10T03:11:32;3.10;;;0.30;;
11228;SDS011;5671;47.936;8.716;2023-05-10T03:14:16;4.60;;;0.80;;
11228;SDS011;5671;47.936;8.716;2023-05-10T03:16:55;0.97;;;0.60;;
11228;SDS011;5671;47.936;8.716;2023-05-10T03:19:27;2.10;;;0.70;;
11228;SDS011;5671;47.936;8.716;2023-05-10T03:21:59;3.57;;;0.80;;
11228;SDS011;5671;47.936;8.716;2023-05-10T03:24:32;2.87;;;0.30;;
11228;SDS011;5671;47.936;8.716;2023-05-10T03:27:03;2.00;;;0.30;;
11228;SDS011;5671;47.936;8.716;2023-05-10T03:29:31;1.33;;;0.50;;
11228;SDS011;5671;47.936;8.716;2023-05-10T03:31:58;2.00;;;0.30;;
11228;SDS011;5671;47.936;8.716;2023-05-10T03:34:25;0.30;;;0.30;;
11228;SDS011;5671;47.936;8.716;2023-05-10T03:36:52;0.40;;;0.40;;
11228;SDS011;5671;47.936;8.716;2023-05-10T03:39:19;14.93;;;1.40;;
11228;SDS011;5671;47.936;8.716;2023-05-10T03:41:46;3.00;;;0.50;;
11228;SDS011;5671;47.936;8.716;2023-05-10T03:44:15;6.33;;;0.43;;
11228;SDS011;5671;47.936;8.716;2023-05-10T03:46:41;1.33;;;0.30;;
11228;SDS011;5671;47.936;8.716;2023-05-10T03:49:08;0.43;;;0.23;;
11228;SDS011;5671;47.936;8.716;2023-05-10T03:51:35;3.40;;;0.40;;
11228;SDS011;5671;47.936;8.716;2023-05-10T03:54:02;0.67;;;0.30;;
11228;SDS011;5671;47.936;8.716;2023-05-10T03:56:29;0.73;;;0.20;;
11228;SDS011;5671;47.936;8.716;2023-05-10T03:58:56;1.33;;;0.70;;
11228;SDS011;5671;47.936;8.716;2023-05-10T04:01:24;3.10;;;0.47;;
11228;SDS011;5671;47.936;8.716;2023-05-10T04:03:51;1.30;;;0.30;;
11228;SDS011;5671;47.936;8.716;2023-05-10T04:06:18;1.37;;;0.17;;
11228;SDS011;5671;47.936;8.716;2023-05-10T04:08:45;3.53;;;0.40;;
11228;SDS011;5671;47.936;8.716;2023-05-10T04:11:11;2.20;;;0.40;;
11228;SDS011;5671;47.936;8.716;2023-05-10T04:13:39;4.23;;;0.47;;
11228;SDS011;5671;47.936;8.716;2023-05-10T04:16:06;3.03;;;0.60;;
11228;SDS011;5671;47.936;8.716;2023-05-10T04:18:34;1.53;;;0.40;;
11228;SDS011;5671;47.936;8.716;2023-05-10T04:21:01;1.60;;;0.50;;
11228;SDS011;5671;47.936;8.716;2023-05-10T04:23:28;0.40;;;0.30;;
11228;SDS011;5671;47.936;8.716;2023-05-10T04:25:58;4.00;;;0.37;;
11228;SDS011;5671;47.936;8.716;2023-05-10T04:28:26;0.80;;;0.20;;
11228;SDS011;5671;47.936;8.716;2023-05-10T04:30:59;1.80;;;0.40;;
11228;SDS011;5671;47.936;8.716;2023-05-10T04:33:27;1.20;;;0.40;;
11228;SDS011;5671;47.936;8.716;2023-05-10T04:35:55;3.40;;;0.87;;
11228;SDS011;5671;47.936;8.716;2023-05-10T04:38:22;2.27;;;0.30;;
11228;SDS011;5671;47.936;8.716;2023-05-10T04:40:49;1.23;;;0.60;;
11228;SDS011;5671;47.936;8.716;2023-05-10T04:43:16;5.20;;;0.83;;
11228;SDS011;5671;47.936;8.716;2023-05-10T04:45:43;3.13;;;0.37;;
11228;SDS011;5671;47.936;8.716;2023-05-10T04:48:10;0.30;;;0.30;;
11228;SDS011;5671;47.936;8.716;2023-05-10T04:50:37;0.80;;;0.40;;
11228;SDS011;5671;47.936;8.716;2023-05-10T04:53:06;1.53;;;0.70;;
11228;SDS011;5671;47.936;8.716;2023-05-10T04:55:33;1.13;;;0.40;;
11228;SDS011;5671;47.936;8.716;2023-05-10T04:58:00;0.20;;;0.20;;
11228;SDS011;5671;47.936;8.716;2023-05-10T05:00:27;3.13;;;0.80;;
11228;SDS011;5671;47.936;8.716;2023-05-10T05:02:54;0.30;;;0.30;;
11228;SDS011;5671;47.936;8.716;2023-05-10T05:05:21;1.80;;;0.50;;
11228;SDS011;5671;47.936;8.716;2023-05-10T05:07:48;1.50;;;0.90;;
11228;SDS011;5671;47.936;8.716;2023-05-10T05:10:16;4.73;;;0.43;;
11228;SDS011;5671;47.936;8.716;2023-05-10T05:12:43;4.43;;;0.50;;
11228;SDS011;5671;47.936;8.716;2023-05-10T05:15:10;0.30;;;0.30;;
11228;SDS011;5671;47.936;8.716;2023-05-10T05:17:37;1.03;;;0.40;;
11228;SDS011;5671;47.936;8.716;2023-05-10T05:20:05;3.77;;;0.67;;
11228;SDS011;5671;47.936;8.716;2023-05-10T05:22:33;2.53;;;0.63;;
11228;SDS011;5671;47.936;8.716;2023-05-10T05:24:59;1.53;;;0.47;;
11228;SDS011;5671;47.936;8.716;2023-05-10T05:27:28;0.50;;;0.50;;
11228;SDS011;5671;47.936;8.716;2023-05-10T05:29:56;0.77;;;0.50;;
11228;SDS011;5671;47.936;8.716;2023-05-10T05:32:23;1.00;;;0.80;;
11228;SDS011;5671;47.936;8.716;2023-05-10T05:34:50;2.73;;;0.77;;
11228;SDS011;5671;47.936;8.716;2023-05-10T05:37:18;2.20;;;0.60;;
11228;SDS011;5671;47.936;8.716;2023-05-10T05:39:46;0.97;;;0.73;;
11228;SDS011;5671;47.936;8.716;2023-05-10T05:42:13;0.87;;;0.70;;
11228;SDS011;5671;47.936;8.716;2023-05-10T05:44:43;2.40;;;0.70;;
11228;SDS011;5671;47.936;8.716;2023-05-10T05:47:10;2.63;;;0.80;;
11228;SDS011;5671;47.936;8.716;2023-05-10T05:49:37;1.00;;;0.77;;
11228;SDS011;5671;47.936;8.716;2023-05-10T05:52:04;1.43;;;0.50;;
11228;SDS011;5671;47.936;8.716;2023-05-10T05:54:31;1.30;;;0.53;;
11228;SDS011;5671;47.936;8.716;2023-05-10T05:56:58;0.30;;;0.30;;
11228;SDS011;5671;47.936;8.716;2023-05-10T05:59:26;4.00;;;0.63;;
11228;SDS011;5671;47.936;8.716;2023-05-10T06:01:54;1.10;;;0.70;;
11228;SDS011;5671;47.936;8.716;2023-05-10T06:04:21;0.80;;;0.80;;
11228;SDS011;5671;47.936;8.716;2023-05-10T06:06:47;3.20;;;1.07;;
11228;SDS011;5671;47.936;8.716;2023-05-10T06:09:14;2.13;;;0.90;;
11228;SDS011;5671;47.936;8.716;2023-05-10T06:11:41;2.07;;;0.70;;
11228;SDS011;5671;47.936;8.716;2023-05-10T06:14:08;3.20;;;0.80;;
11228;SDS011;5671;47.936;8.716;2023-05-10T06:16:35;2.53;;;0.83;;
11228;SDS011;5671;47.936;8.716;2023-05-10T06:19:03;0.73;;;0.73;;
11228;SDS011;5671;47.936;8.716;2023-05-10T06:21:30;1.23;;;0.47;;
11228;SDS011;5671;47.936;8.716;2023-05-10T06:23:57;3.30;;;0.80;;
11228;SDS011;5671;47.936;8.716;2023-05-10T06:26:24;0.93;;;0.50;;
11228;SDS011;5671;47.936;8.716;2023-05-10T06:28:51;2.00;;;0.73;;
11228;SDS011;5671;47.936;8.716;2023-05-10T06:31:18;0.83;;;0.70;;
11228;SDS011;5671;47.936;8.716;2023-05-10T06:33:44;0.80;;;0.80;;
11228;SDS011;5671;47.936;8.716;2023-05-10T06:36:13;1.07;;;0.70;;
11228;SDS011;5671;47.936;8.716;2023-05-10T06:38:40;0.60;;;0.50;;
11228;SDS011;5671;47.936;8.716;2023-05-10T06:41:06;2.93;;;0.60;;
11228;SDS011;5671;47.936;8.716;2023-05-10T06:43:33;2.70;;;0.53;;
11228;SDS011;5671;47.936;8.716;2023-05-10T06:46:02;3.67;;;0.80;;
11228;SDS011;5671;47.936;8.716;2023-05-10T06:48:28;0.70;;;0.40;;
11228;SDS011;5671;47.936;8.716;2023-05-10T06:50:55;2.33;;;0.60;;
11228;SDS011;5671;47.936;8.716;2023-05-10T06:53:23;2.00;;;0.70;;
11228;SDS011;5671;47.936;8.716;2023-05-10T06:55:50;0.80;;;0.70;;
11228;SDS011;5671;47.936;8.716;2023-05-10T06:58:17;1.30;;;0.43;;
11228;SDS011;5671;47.936;8.716;2023-05-10T07:00:44;1.40;;;0.73;;
11228;SDS011;5671;47.936;8.716;2023-05-10T07:03:12;2.83;;;0.63;;
11228;SDS011;5671;47.936;8.716;2023-05-10T07:05:39;1.50;;;0.50;;
11228;SDS011;5671;47.936;8.716;2023-05-10T07:08:05;0.63;;;0.40;;
11228;SDS011;5671;47.936;8.716;2023-05-10T07:10:34;3.80;;;0.80;;
11228;SDS011;5671;47.936;8.716;2023-05-10T07:13:01;0.63;;;0.50;;
11228;SDS011;5671;47.936;8.716;2023-05-10T07:15:28;1.27;;;0.43;;
11228;SDS011;5671;47.936;8.716;2023-05-10T07:17:55;1.77;;;0.50;;
11228;SDS011;5671;47.936;8.716;2023-05-10T07:20:22;0.67;;;0.37;;
11228;SDS011;5671;47.936;8.716;2023-05-10T07:22:49;0.40;;;0.40;;
11228;SDS011;5671;47.936;8.716;2023-05-10T07:25:15;4.80;;;0.97;;
11228;SDS011;5671;47.936;8.716;2023-05-10T07:27:44;5.13;;;0.60;;
11228;SDS011;5671;47.936;8.716;2023-05-10T07:30:11;1.00;;;0.40;;
11228;SDS011;5671;47.936;8.716;2023-05-10T07:32:39;0.87;;;0.47;;
11228;SDS011;5671;47.936;8.716;2023-05-10T07:35:07;4.50;;;0.87;;
11228;SDS011;5671;47.936;8.716;2023-05-10T07:37:34;0.60;;;0.60;;
11228;SDS011;5671;47.936;8.716;2023-05-10T07:40:01;2.60;;;0.60;;
11228;SDS011;5671;47.936;8.716;2023-05-10T07:42:28;3.00;;;0.77;;
11228;SDS011;5671;47.936;8.716;2023-05-10T07:44:56;1.13;;;0.60;;
11228;SDS011;5671;47.936;8.716;2023-05-10T07:47:23;1.23;;;0.60;;
11228;SDS011;5671;47.936;8.716;2023-05-10T07:49:51;1.53;;;0.70;;
11228;SDS011;5671;47.936;8.716;2023-05-10T07:52:17;3.70;;;0.90;;
11228;SDS011;5671;47.936;8.716;2023-05-10T07:54:44;2.30;;;0.50;;
11228;SDS011;5671;47.936;8.716;2023-05-10T07:57:11;2.97;;;0.50;;
11228;SDS011;5671;47.936;8.716;2023-05-10T07:59:39;0.73;;;0.43;;
11228;SDS011;5671;47.936;8.716;2023-05-10T08:02:08;1.17;;;0.40;;
11228;SDS011;5671;47.936;8.716;2023-05-10T08:04:35;0.50;;;0.50;;
11228;SDS011;5671;47.936;8.716;2023-05-10T08:07:02;2.47;;;0.53;;
11228;SDS011;5671;47.936;8.716;2023-05-10T08:09:29;1.13;;;0.30;;
11228;SDS011;5671;47.936;8.716;2023-05-10T08:11:55;3.40;;;0.47;;
11228;SDS011;5671;47.936;8.716;2023-05-10T08:14:24;2.53;;;0.40;;
11228;SDS011;5671;47.936;8.716;2023-05-10T08:16:51;1.73;;;0.80;;
11228;SDS011;5671;47.936;8.716;2023-05-10T08:19:19;1.00;;;0.40;;
11228;SDS011;5671;47.936;8.716;2023-05-10T08:21:46;0.63;;;0.23;;
11228;SDS011;5671;47.936;8.716;2023-05-10T08:24:13;0.50;;;0.50;;
11228;SDS011;5671;47.936;8.716;2023-05-10T08:26:40;0.87;;;0.50;;
11228;SDS011;5671;47.936;8.716;2023-05-10T08:29:07;1.13;;;0.50;;
11228;SDS011;5671;47.936;8.716;2023-05-10T08:31:34;1.60;;;0.40;;
11228;SDS011;5671;47.936;8.716;2023-05-10T08:34:01;2.27;;;0.30;;
11228;SDS011;5671;47.936;8.716;2023-05-10T08:36:29;2.20;;;0.40;;
11228;SDS011;5671;47.936;8.716;2023-05-10T08:38:57;1.13;;;0.33;;
11228;SDS011;5671;47.936;8.716;2023-05-10T08:41:24;1.23;;;0.37;;
11228;SDS011;5671;47.936;8.716;2023-05-10T08:43:51;1.10;;;0.40;;
11228;SDS011;5671;47.936;8.716;2023-05-10T08:46:20;0.60;;;0.20;;
11228;SDS011;5671;47.936;8.716;2023-05-10T08:48:49;1.10;;;0.47;;
11228;SDS011;5671;47.936;8.716;2023-05-10T08:51:18;6.97;;;1.00;;
11228;SDS011;5671;47.936;8.716;2023-05-10T08:53:50;2.40;;;0.40;;
11228;SDS011;5671;47.936;8.716;2023-05-10T08:56:17;4.33;;;0.80;;
11228;SDS011;5671;47.936;8.716;2023-05-10T08:58:45;1.97;;;0.50;;
11228;SDS011;5671;47.936;8.716;2023-05-10T09:01:12;2.13;;;0.73;;
11228;SDS011;5671;47.936;8.716;2023-05-10T09:03:41;0.30;;;0.20;;
11228;SDS011;5671;47.936;8.716;2023-05-10T09:06:08;2.30;;;0.70;;
11228;SDS011;5671;47.936;8.716;2023-05-10T09:08:38;1.40;;;0.40;;
11228;SDS011;5671;47.936;8.716;2023-05-10T09:11:06;2.10;;;0.50;;
11228;SDS011;5671;47.936;8.716;2023-05-10T09:13:34;2.63;;;0.50;;
11228;SDS011;5671;47.936;8.716;2023-05-10T09:16:02;2.87;;;0.70;;
11228;SDS011;5671;47.936;8.716;2023-05-10T09:18:30;1.23;;;0.40;;
11228;SDS011;5671;47.936;8.716;2023-05-10T09:20:57;3.17;;;0.60;;
11228;SDS011;5671;47.936;8.716;2023-05-10T09:23:24;1.80;;;0.50;;
11228;SDS011;5671;47.936;8.716;2023-05-10T09:26:03;0.77;;;0.40;;
11228;SDS011;5671;47.936;8.716;2023-05-10T09:28:32;1.77;;;0.70;;
11228;SDS011;5671;47.936;8.716;2023-05-10T09:30:59;3.13;;;0.50;;
11228;SDS011;5671;47.936;8.716;2023-05-10T09:33:26;2.53;;;0.47;;
11228;SDS011;5671;47.936;8.716;2023-05-10T09:35:53;2.33;;;0.60;;
11228;SDS011;5671;47.936;8.716;2023-05-10T09:38:20;0.83;;;0.43;;
11228;SDS011;5671;47.936;8.716;2023-05-10T09:40:50;2.33;;;0.40;;
11228;SDS011;5671;47.936;8.716;2023-05-10T09:43:19;2.40;;;0.30;;
11228;SDS011;5671;47.936;8.716;2023-05-10T09:45:49;2.07;;;0.80;;
11228;SDS011;5671;47.936;8.716;2023-05-10T09:48:15;3.37;;;0.70;;
11228;SDS011;5671;47.936;8.716;2023-05-10T09:50:42;2.53;;;0.83;;
11228;SDS011;5671;47.936;8.716;2023-05-10T09:53:09;0.30;;;0.30;;
11228;SDS011;5671;47.936;8.716;2023-05-10T09:55:42;1.17;;;0.70;;
11228;SDS011;5671;47.936;8.716;2023-05-10T09:58:11;2.00;;;0.50;;
11228;SDS011;5671;47.936;8.716;2023-05-10T10:00:40;0.60;;;0.60;;
11228;SDS011;5671;47.936;8.716;2023-05-10T10:03:13;1.80;;;0.60;;
11228;SDS011;5671;47.936;8.716;2023-05-10T10:05:41;3.20;;;0.53;;
11228;SDS011;5671;47.936;8.716;2023-05-10T10:08:09;0.70;;;0.50;;
11228;SDS011;5671;47.936;8.716;2023-05-10T10:10:36;0.73;;;0.50;;
11228;SDS011;5671;47.936;8.716;2023-05-10T10:13:03;0.70;;;0.43;;
11228;SDS011;5671;47.936;8.716;2023-05-10T10:15:30;3.87;;;0.90;;
11228;SDS011;5671;47.936;8.716;2023-05-10T10:17:59;2.70;;;1.03;;
11228;SDS011;5671;47.936;8.716;2023-05-10T10:20:29;1.63;;;1.07;;
11228;SDS011;5671;47.936;8.716;2023-05-10T10:22:56;1.47;;;1.10;;
11228;SDS011;5671;47.936;8.716;2023-05-10T10:25:23;1.60;;;0.80;;
11228;SDS011;5671;47.936;8.716;2023-05-10T10:27:56;1.80;;;1.20;;
11228;SDS011;5671;47.936;8.716;2023-05-10T10:30:34;0.90;;;0.90;;
11228;SDS011;5671;47.936;8.716;2023-05-10T10:33:13;3.67;;;0.80;;
11228;SDS011;5671;47.936;8.716;2023-05-10T10:35:57;2.10;;;1.10;;
11228;SDS011;5671;47.936;8.716;2023-05-10T10:38:35;2.33;;;1.13;;
11228;SDS011;5671;47.936;8.716;2023-05-10T10:41:08;3.03;;;0.70;;
11228;SDS011;5671;47.936;8.716;2023-05-10T10:43:36;1.27;;;0.60;;
11228;SDS011;5671;47.936;8.716;2023-05-10T10:46:12;2.63;;;0.73;;
11228;SDS011;5671;47.936;8.716;2023-05-10T10:48:40;0.80;;;0.60;;
11228;SDS011;5671;47.936;8.716;2023-05-10T10:51:08;0.43;;;0.40;;
11228;SDS011;5671;47.936;8.716;2023-05-10T10:53:36;1.23;;;0.80;;
11228;SDS011;5671;47.936;8.716;2023-05-10T10:56:07;1.73;;;0.50;;
11228;SDS011;5671;47.936;8.716;2023-05-10T10:58:35;2.63;;;0.83;;
11228;SDS011;5671;47.936;8.716;2023-05-10T11:01:13;1.67;;;0.60;;
11228;SDS011;5671;47.936;8.716;2023-05-10T11:03:41;2.40;;;0.97;;
11228;SDS011;5671;47.936;8.716;2023-05-10T11:06:42;0.70;;;0.40;;
11228;SDS011;5671;47.936;8.716;2023-05-10T11:09:10;3.40;;;0.60;;
11228;SDS011;5671;47.936;8.716;2023-05-10T11:11:48;1.50;;;0.70;;
11228;SDS011;5671;47.936;8.716;2023-05-10T11:14:19;0.83;;;0.40;;
11228;SDS011;5671;47.936;8.716;2023-05-10T11:16:47;1.70;;;0.77;;
11228;SDS011;5671;47.936;8.716;2023-05-10T11:19:14;1.63;;;0.77;;
11228;SDS011;5671;47.936;8.716;2023-05-10T11:21:47;2.30;;;0.90;;
11228;SDS011;5671;47.936;8.716;2023-05-10T11:24:16;2.60;;;1.10;;
11228;SDS011;5671;47.936;8.716;2023-05-10T11:26:44;1.40;;;0.83;;
11228;SDS011;5671;47.936;8.716;2023-05-10T11:29:12;4.57;;;1.10;;
11228;SDS011;5671;47.936;8.716;2023-05-10T11:31:43;1.57;;;0.97;;
11228;SDS011;5671;47.936;8.716;2023-05-10T11:34:11;5.53;;;1.20;;
11228;SDS011;5671;47.936;8.716;2023-05-10T11:36:51;10.53;;;1.10;;
11228;SDS011;5671;47.936;8.716;2023-05-10T11:39:19;1.40;;;0.70;;
11228;SDS011;5671;47.936;8.716;2023-05-10T11:41:47;2.07;;;0.83;;
11228;SDS011;5671;47.936;8.716;2023-05-10T11:44:14;3.20;;;0.93;;
11228;SDS011;5671;47.936;8.716;2023-05-10T11:46:41;3.27;;;1.00;;
11228;SDS011;5671;47.936;8.716;2023-05-10T11:49:08;5.70;;;1.13;;
11228;SDS011;5671;47.936;8.716;2023-05-10T11:51:36;1.43;;;0.80;;
11228;SDS011;5671;47.936;8.716;2023-05-10T11:54:10;2.17;;;0.70;;
11228;SDS011;5671;47.936;8.716;2023-05-10T11:56:38;2.73;;;1.07;;
11228;SDS011;5671;47.936;8.716;2023-05-10T11:59:05;2.40;;;0.80;;
11228;SDS011;5671;47.936;8.716;2023-05-10T12:01:33;3.03;;;0.90;;
11228;SDS011;5671;47.936;8.716;2023-05-10T12:04:00;0.70;;;0.47;;
11228;SDS011;5671;47.936;8.716;2023-05-10T12:06:28;4.03;;;0.90;;
11228;SDS011;5671;47.936;8.716;2023-05-10T12:08:56;1.80;;;0.50;;
11228;SDS011;5671;47.936;8.716;2023-05-10T12:11:25;5.37;;;0.90;;
11228;SDS011;5671;47.936;8.716;2023-05-10T12:13:53;1.90;;;0.90;;
11228;SDS011;5671;47.936;8.716;2023-05-10T12:16:21;3.07;;;0.90;;
11228;SDS011;5671;47.936;8.716;2023-05-10T12:18:50;2.60;;;1.10;;
11228;SDS011;5671;47.936;8.716;2023-05-10T12:21:18;1.90;;;1.10;;
11228;SDS011;5671;47.936;8.716;2023-05-10T12:23:46;3.03;;;1.00;;
11228;SDS011;5671;47.936;8.716;2023-05-10T12:26:14;1.67;;;1.20;;
11228;SDS011;5671;47.936;8.716;2023-05-10T12:28:42;3.90;;;1.37;;
11228;SDS011;5671;47.936;8.716;2023-05-10T12:31:09;3.00;;;0.60;;
11228;SDS011;5671;47.936;8.716;2023-05-10T12:33:36;4.73;;;1.17;;
11228;SDS011;5671;47.936;8.716;2023-05-10T12:36:06;3.57;;;0.60;;
11228;SDS011;5671;47.936;8.716;2023-05-10T12:38:34;3.87;;;0.90;;
11228;SDS011;5671;47.936;8.716;2023-05-10T12:41:03;4.60;;;1.10;;
11228;SDS011;5671;47.936;8.716;2023-05-10T12:43:31;1.00;;;0.70;;
11228;SDS011;5671;47.936;8.716;2023-05-10T12:46:00;4.50;;;0.67;;
11228;SDS011;5671;47.936;8.716;2023-05-10T12:48:31;1.63;;;0.77;;
11228;SDS011;5671;47.936;8.716;2023-05-10T12:50:58;2.30;;;0.67;;
11228;SDS011;5671;47.936;8.716;2023-05-10T12:53:25;3.37;;;1.03;;
11228;SDS011;5671;47.936;8.716;2023-05-10T12:55:52;2.17;;;0.80;;
11228;SDS011;5671;47.936;8.716;2023-05-10T12:58:19;1.43;;;0.60;;
11228;SDS011;5671;47.936;8.716;2023-05-10T13:00:46;7.20;;;1.40;;
11228;SDS011;5671;47.936;8.716;2023-05-10T13:03:14;1.53;;;1.00;;
11228;SDS011;5671;47.936;8.716;2023-05-10T13:05:41;1.20;;;0.87;;
11228;SDS011;5671;47.936;8.716;2023-05-10T13:08:08;0.80;;;0.73;;
11228;SDS011;5671;47.936;8.716;2023-05-10T13:10:35;2.40;;;0.90;;
11228;SDS011;5671;47.936;8.716;2023-05-10T13:13:02;1.00;;;0.57;;
11228;SDS011;5671;47.936;8.716;2023-05-10T13:15:29;0.83;;;0.83;;
11228;SDS011;5671;47.936;8.716;2023-05-10T13:17:55;3.90;;;0.77;;
11228;SDS011;5671;47.936;8.716;2023-05-10T13:20:24;1.03;;;0.63;;
11228;SDS011;5671;47.936;8.716;2023-05-10T13:22:51;4.67;;;1.00;;
11228;SDS011;5671;47.936;8.716;2023-05-10T13:25:18;0.97;;;0.43;;
11228;SDS011;5671;47.936;8.716;2023-05-10T13:27:45;0.90;;;0.60;;
11228;SDS011;5671;47.936;8.716;2023-05-10T13:30:12;0.73;;;0.70;;
11228;SDS011;5671;47.936;8.716;2023-05-10T13:35:16;1.77;;;0.83;;
11228;SDS011;5671;47.936;8.716;2023-05-10T13:37:44;1.30;;;0.80;;
11228;SDS011;5671;47.936;8.716;2023-05-10T13:40:11;2.50;;;0.90;;
11228;SDS011;5671;47.936;8.716;2023-05-10T13:42:39;0.83;;;0.63;;
11228;SDS011;5671;47.936;8.716;2023-05-10T13:45:06;2.37;;;0.50;;
11228;SDS011;5671;47.936;8.716;2023-05-10T13:47:34;5.73;;;0.80;;
11228;SDS011;5671;47.936;8.716;2023-05-10T13:50:01;2.60;;;1.10;;
11228;SDS011;5671;47.936;8.716;2023-05-10T13:52:28;0.67;;;0.43;;
11228;SDS011;5671;47.936;8.716;2023-05-10T13:54:56;3.70;;;1.00;;
11228;SDS011;5671;47.936;8.716;2023-05-10T13:57:23;4.17;;;0.60;;
11228;SDS011;5671;47.936;8.716;2023-05-10T13:59:51;3.63;;;0.80;;
11228;SDS011;5671;47.936;8.716;2023-05-10T14:02:18;1.60;;;0.73;;
11228;SDS011;5671;47.936;8.716;2023-05-10T14:04:45;1.00;;;0.70;;
11228;SDS011;5671;47.936;8.716;2023-05-10T14:07:13;7.50;;;1.43;;
11228;SDS011;5671;47.936;8.716;2023-05-10T14:09:40;3.83;;;0.67;;
11228;SDS011;5671;47.936;8.716;2023-05-10T14:12:08;5.07;;;1.00;;
11228;SDS011;5671;47.936;8.716;2023-05-10T14:14:35;2.07;;;0.90;;
11228;SDS011;5671;47.936;8.716;2023-05-10T14:17:01;1.30;;;0.50;;
11228;SDS011;5671;47.936;8.716;2023-05-10T14:19:29;1.50;;;0.70;;
11228;SDS011;5671;47.936;8.716;2023-05-10T14:21:57;1.53;;;0.80;;
11228;SDS011;5671;47.936;8.716;2023-05-10T14:24:24;1.60;;;0.60;;
11228;SDS011;5671;47.936;8.716;2023-05-10T14:26:51;2.80;;;0.90;;
11228;SDS011;5671;47.936;8.716;2023-05-10T14:29:20;4.73;;;1.00;;
11228;SDS011;5671;47.936;8.716;2023-05-10T14:31:47;1.47;;;0.60;;
11228;SDS011;5671;47.936;8.716;2023-05-10T14:34:14;5.97;;;1.30;;
11228;SDS011;5671;47.936;8.716;2023-05-10T14:36:41;2.00;;;1.13;;
11228;SDS011;5671;47.936;8.716;2023-05-10T14:39:07;3.60;;;1.20;;
11228;SDS011;5671;47.936;8.716;2023-05-10T14:41:37;0.90;;;0.67;;
11228;SDS011;5671;47.936;8.716;2023-05-10T14:44:05;0.57;;;0.30;;
11228;SDS011;5671;47.936;8.716;2023-05-10T14:46:34;2.43;;;0.50;;
11228;SDS011;5671;47.936;8.716;2023-05-10T14:49:00;1.03;;;0.40;;
11228;SDS011;5671;47.936;8.716;2023-05-10T14:51:27;0.63;;;0.33;;
11228;SDS011;5671;47.936;8.716;2023-05-10T14:53:54;1.17;;;0.23;;
11228;SDS011;5671;47.936;8.716;2023-05-10T14:56:21;1.80;;;0.80;;
11228;SDS011;5671;47.936;8.716;2023-05-10T14:58:49;1.43;;;0.63;;
11228;SDS011;5671;47.936;8.716;2023-05-10T15:01:16;0.53;;;0.30;;
11228;SDS011;5671;47.936;8.716;2023-05-10T15:03:44;5.30;;;0.80;;
11228;SDS011;5671;47.936;8.716;2023-05-10T15:06:11;2.67;;;0.60;;
11228;SDS011;5671;47.936;8.716;2023-05-10T15:08:40;3.23;;;0.63;;
11228;SDS011;5671;47.936;8.716;2023-05-10T15:11:07;1.83;;;0.60;;